sensor_id;sensor_type;location;lat;lon;timestamp;P1;durP1;ratioP1;P2;durP2;ratioP2
36009;SDS011;22076;52.182;5.404;2024-01-07T00:01:03;26.73;;;13.82;;
36009;SDS011;22076;52.182;5.404;2024-01-07T00:03:29;24.48;;;14.15;;
36009;SDS011;22076;52.182;5.404;2024-01-07T00:05:56;25.88;;;14.38;;
36009;SDS011;22076;52.182;5.404;2024-01-07T00:08:22;30.17;;;15.90;;
36009;SDS011;22076;52.182;5.404;2024-01-07T00:10:50;27.77;;;14.75;;
36009;SDS011;22076;52.182;5.404;2024-01-07T00:13:17;29.73;;;16.20;;
36009;SDS011;22076;52.182;5.404;2024-01-07T00:15:43;29.08;;;14.95;;
36009;SDS011;22076;52.182;5.404;2024-01-07T00:18:10;30.65;;;15.93;;
36009;SDS011;22076;52.182;5.404;2024-01-07T00:20:36;31.95;;;15.05;;
36009;SDS011;22076;52.182;5.404;2024-01-07T00:23:03;31.35;;;17.17;;
36009;SDS011;22076;52.182;5.404;2024-01-07T00:25:29;30.63;;;15.25;;
36009;SDS011;22076;52.182;5.404;2024-01-07T00:27:57;26.35;;;14.98;;
36009;SDS011;22076;52.182;5.404;2024-01-07T00:30:24;27.85;;;14.55;;
36009;SDS011;22076;52.182;5.404;2024-01-07T00:32:50;24.63;;;14.48;;
36009;SDS011;22076;52.182;5.404;2024-01-07T00:35:17;25.58;;;14.70;;
36009;SDS011;22076;52.182;5.404;2024-01-07T00:37:43;26.23;;;13.63;;
36009;SDS011;22076;52.182;5.404;2024-01-07T00:40:10;25.25;;;14.30;;
36009;SDS011;22076;52.182;5.404;2024-01-07T00:42:37;24.08;;;13.35;;
36009;SDS011;22076;52.182;5.404;2024-01-07T00:45:06;24.92;;;13.93;;
36009;SDS011;22076;52.182;5.404;2024-01-07T00:47:33;20.70;;;11.07;;
36009;SDS011;22076;52.182;5.404;2024-01-07T00:50:00;21.58;;;12.32;;
36009;SDS011;22076;52.182;5.404;2024-01-07T00:52:26;24.58;;;12.15;;
36009;SDS011;22076;52.182;5.404;2024-01-07T00:54:52;22.45;;;13.45;;
36009;SDS011;22076;52.182;5.404;2024-01-07T00:57:18;24.27;;;13.65;;
36009;SDS011;22076;52.182;5.404;2024-01-07T00:59:45;23.45;;;13.15;;
36009;SDS011;22076;52.182;5.404;2024-01-07T01:02:13;23.90;;;13.45;;
36009;SDS011;22076;52.182;5.404;2024-01-07T01:04:39;22.35;;;13.57;;
36009;SDS011;22076;52.182;5.404;2024-01-07T01:07:06;21.55;;;11.93;;
36009;SDS011;22076;52.182;5.404;2024-01-07T01:09:33;26.35;;;15.02;;
36009;SDS011;22076;52.182;5.404;2024-01-07T01:11:59;22.17;;;12.90;;
36009;SDS011;22076;52.182;5.404;2024-01-07T01:14:26;26.10;;;13.68;;
36009;SDS011;22076;52.182;5.404;2024-01-07T01:16:53;26.67;;;14.07;;
36009;SDS011;22076;52.182;5.404;2024-01-07T01:19:21;26.33;;;13.60;;
36009;SDS011;22076;52.182;5.404;2024-01-07T01:21:47;18.73;;;11.13;;
36009;SDS011;22076;52.182;5.404;2024-01-07T01:24:13;34.38;;;17.75;;
36009;SDS011;22076;52.182;5.404;2024-01-07T01:26:40;29.38;;;16.13;;
36009;SDS011;22076;52.182;5.404;2024-01-07T01:29:06;28.92;;;15.93;;
36009;SDS011;22076;52.182;5.404;2024-01-07T01:31:33;32.17;;;16.63;;
36009;SDS011;22076;52.182;5.404;2024-01-07T01:34:00;28.40;;;15.60;;
36009;SDS011;22076;52.182;5.404;2024-01-07T01:36:29;25.15;;;13.50;;
36009;SDS011;22076;52.182;5.404;2024-01-07T01:38:57;33.80;;;16.75;;
36009;SDS011;22076;52.182;5.404;2024-01-07T01:41:23;34.63;;;17.25;;
36009;SDS011;22076;52.182;5.404;2024-01-07T01:43:49;30.33;;;15.32;;
36009;SDS011;22076;52.182;5.404;2024-01-07T01:46:16;36.08;;;18.67;;
36009;SDS011;22076;52.182;5.404;2024-01-07T01:48:43;34.75;;;17.60;;
36009;SDS011;22076;52.182;5.404;2024-01-07T01:51:10;27.08;;;15.00;;
36009;SDS011;22076;52.182;5.404;2024-01-07T01:53:38;29.30;;;14.95;;
36009;SDS011;22076;52.182;5.404;2024-01-07T01:56:05;34.72;;;18.58;;
36009;SDS011;22076;52.182;5.404;2024-01-07T01:58:32;31.35;;;16.25;;
36009;SDS011;22076;52.182;5.404;2024-01-07T02:00:58;30.92;;;16.13;;
36009;SDS011;22076;52.182;5.404;2024-01-07T02:03:25;27.77;;;14.93;;
36009;SDS011;22076;52.182;5.404;2024-01-07T02:05:52;34.70;;;17.55;;
36009;SDS011;22076;52.182;5.404;2024-01-07T02:08:19;33.72;;;17.88;;
36009;SDS011;22076;52.182;5.404;2024-01-07T02:10:47;31.00;;;16.10;;
36009;SDS011;22076;52.182;5.404;2024-01-07T02:13:13;35.78;;;20.00;;
36009;SDS011;22076;52.182;5.404;2024-01-07T02:15:40;33.58;;;18.38;;
36009;SDS011;22076;52.182;5.404;2024-01-07T02:18:06;40.47;;;19.40;;
36009;SDS011;22076;52.182;5.404;2024-01-07T02:20:33;42.67;;;21.65;;
36009;SDS011;22076;52.182;5.404;2024-01-07T02:23:00;36.33;;;18.30;;
36009;SDS011;22076;52.182;5.404;2024-01-07T02:25:29;35.53;;;18.70;;
36009;SDS011;22076;52.182;5.404;2024-01-07T02:28:01;35.88;;;17.02;;
36009;SDS011;22076;52.182;5.404;2024-01-07T02:30:27;34.58;;;16.50;;
36009;SDS011;22076;52.182;5.404;2024-01-07T02:32:54;34.45;;;17.63;;
36009;SDS011;22076;52.182;5.404;2024-01-07T02:35:20;30.08;;;17.15;;
36009;SDS011;22076;52.182;5.404;2024-01-07T02:37:47;37.53;;;19.15;;
36009;SDS011;22076;52.182;5.404;2024-01-07T02:40:13;33.20;;;19.10;;
36009;SDS011;22076;52.182;5.404;2024-01-07T02:42:41;31.17;;;15.82;;
36009;SDS011;22076;52.182;5.404;2024-01-07T02:45:08;34.75;;;18.15;;
36009;SDS011;22076;52.182;5.404;2024-01-07T02:47:35;34.88;;;18.42;;
36009;SDS011;22076;52.182;5.404;2024-01-07T02:50:01;33.45;;;17.95;;
36009;SDS011;22076;52.182;5.404;2024-01-07T02:52:28;30.88;;;17.13;;
36009;SDS011;22076;52.182;5.404;2024-01-07T02:54:54;36.15;;;17.63;;
36009;SDS011;22076;52.182;5.404;2024-01-07T02:57:21;31.55;;;17.45;;
36009;SDS011;22076;52.182;5.404;2024-01-07T02:59:49;29.85;;;16.02;;
36009;SDS011;22076;52.182;5.404;2024-01-07T03:02:15;31.27;;;17.75;;
36009;SDS011;22076;52.182;5.404;2024-01-07T03:04:42;32.00;;;16.20;;
36009;SDS011;22076;52.182;5.404;2024-01-07T03:07:09;33.50;;;17.40;;
36009;SDS011;22076;52.182;5.404;2024-01-07T03:09:35;28.85;;;15.70;;
36009;SDS011;22076;52.182;5.404;2024-01-07T03:12:02;31.02;;;16.20;;
36009;SDS011;22076;52.182;5.404;2024-01-07T03:14:29;33.05;;;17.10;;
36009;SDS011;22076;52.182;5.404;2024-01-07T03:16:57;31.38;;;16.70;;
36009;SDS011;22076;52.182;5.404;2024-01-07T03:19:23;33.28;;;18.85;;
36009;SDS011;22076;52.182;5.404;2024-01-07T03:21:50;36.10;;;18.15;;
36009;SDS011;22076;52.182;5.404;2024-01-07T03:24:16;39.30;;;18.67;;
36009;SDS011;22076;52.182;5.404;2024-01-07T03:26:43;31.17;;;18.45;;
36009;SDS011;22076;52.182;5.404;2024-01-07T03:29:09;38.33;;;19.33;;
36009;SDS011;22076;52.182;5.404;2024-01-07T03:31:39;37.85;;;17.77;;
36009;SDS011;22076;52.182;5.404;2024-01-07T03:34:07;36.72;;;18.90;;
36009;SDS011;22076;52.182;5.404;2024-01-07T03:36:33;36.40;;;19.30;;
36009;SDS011;22076;52.182;5.404;2024-01-07T03:39:00;37.58;;;19.15;;
36009;SDS011;22076;52.182;5.404;2024-01-07T03:41:26;33.17;;;17.15;;
36009;SDS011;22076;52.182;5.404;2024-01-07T03:43:53;31.13;;;16.75;;
36009;SDS011;22076;52.182;5.404;2024-01-07T03:46:19;36.50;;;17.95;;
36009;SDS011;22076;52.182;5.404;2024-01-07T03:48:46;39.38;;;18.45;;
36009;SDS011;22076;52.182;5.404;2024-01-07T03:51:13;36.30;;;19.00;;
36009;SDS011;22076;52.182;5.404;2024-01-07T03:53:40;35.22;;;19.15;;
36009;SDS011;22076;52.182;5.404;2024-01-07T03:56:07;43.72;;;21.50;;
36009;SDS011;22076;52.182;5.404;2024-01-07T03:58:33;38.40;;;19.27;;
36009;SDS011;22076;52.182;5.404;2024-01-07T04:01:00;43.78;;;20.40;;
36009;SDS011;22076;52.182;5.404;2024-01-07T04:03:27;39.80;;;19.98;;
36009;SDS011;22076;52.182;5.404;2024-01-07T04:05:53;45.13;;;19.17;;
36009;SDS011;22076;52.182;5.404;2024-01-07T04:08:21;40.88;;;20.58;;
36009;SDS011;22076;52.182;5.404;2024-01-07T04:10:48;39.63;;;19.45;;
36009;SDS011;22076;52.182;5.404;2024-01-07T04:13:15;38.80;;;20.10;;
36009;SDS011;22076;52.182;5.404;2024-01-07T04:15:41;37.83;;;19.83;;
36009;SDS011;22076;52.182;5.404;2024-01-07T04:18:08;38.67;;;19.50;;
36009;SDS011;22076;52.182;5.404;2024-01-07T04:23:05;32.58;;;16.52;;
36009;SDS011;22076;52.182;5.404;2024-01-07T04:25:33;37.63;;;19.75;;
36009;SDS011;22076;52.182;5.404;2024-01-07T04:27:59;31.48;;;16.23;;
36009;SDS011;22076;52.182;5.404;2024-01-07T04:30:26;41.22;;;21.77;;
36009;SDS011;22076;52.182;5.404;2024-01-07T04:32:52;38.70;;;19.55;;
36009;SDS011;22076;52.182;5.404;2024-01-07T04:35:19;38.13;;;19.33;;
36009;SDS011;22076;52.182;5.404;2024-01-07T04:37:45;32.92;;;17.70;;
36009;SDS011;22076;52.182;5.404;2024-01-07T04:40:12;33.78;;;17.75;;
36009;SDS011;22076;52.182;5.404;2024-01-07T04:42:40;34.70;;;17.58;;
36009;SDS011;22076;52.182;5.404;2024-01-07T04:45:07;28.75;;;16.38;;
36009;SDS011;22076;52.182;5.404;2024-01-07T04:47:34;33.22;;;16.60;;
36009;SDS011;22076;52.182;5.404;2024-01-07T04:50:00;26.85;;;13.65;;
36009;SDS011;22076;52.182;5.404;2024-01-07T04:52:27;27.50;;;15.65;;
36009;SDS011;22076;52.182;5.404;2024-01-07T04:54:54;26.45;;;14.60;;
36009;SDS011;22076;52.182;5.404;2024-01-07T04:57:21;34.70;;;17.25;;
36009;SDS011;22076;52.182;5.404;2024-01-07T04:59:49;32.03;;;15.60;;
36009;SDS011;22076;52.182;5.404;2024-01-07T05:02:16;29.67;;;15.85;;
36009;SDS011;22076;52.182;5.404;2024-01-07T05:04:43;31.52;;;15.13;;
36009;SDS011;22076;52.182;5.404;2024-01-07T05:07:10;29.80;;;14.60;;
36009;SDS011;22076;52.182;5.404;2024-01-07T05:09:36;29.02;;;15.38;;
36009;SDS011;22076;52.182;5.404;2024-01-07T05:12:03;30.17;;;15.57;;
36009;SDS011;22076;52.182;5.404;2024-01-07T05:14:30;27.40;;;14.18;;
36009;SDS011;22076;52.182;5.404;2024-01-07T05:16:57;26.83;;;14.95;;
36009;SDS011;22076;52.182;5.404;2024-01-07T05:19:24;30.13;;;15.65;;
36009;SDS011;22076;52.182;5.404;2024-01-07T05:21:50;28.50;;;14.73;;
36009;SDS011;22076;52.182;5.404;2024-01-07T05:24:17;25.67;;;14.48;;
36009;SDS011;22076;52.182;5.404;2024-01-07T05:26:44;32.92;;;16.75;;
36009;SDS011;22076;52.182;5.404;2024-01-07T05:29:10;30.50;;;16.95;;
36009;SDS011;22076;52.182;5.404;2024-01-07T05:31:38;28.30;;;15.70;;
36009;SDS011;22076;52.182;5.404;2024-01-07T05:34:06;27.38;;;15.38;;
36009;SDS011;22076;52.182;5.404;2024-01-07T05:36:33;29.02;;;15.43;;
36009;SDS011;22076;52.182;5.404;2024-01-07T05:39:00;26.90;;;13.80;;
36009;SDS011;22076;52.182;5.404;2024-01-07T05:41:26;32.20;;;17.42;;
36009;SDS011;22076;52.182;5.404;2024-01-07T05:43:53;31.33;;;14.48;;
36009;SDS011;22076;52.182;5.404;2024-01-07T05:46:19;28.75;;;15.77;;
36009;SDS011;22076;52.182;5.404;2024-01-07T05:48:46;30.20;;;15.77;;
36009;SDS011;22076;52.182;5.404;2024-01-07T05:51:15;35.60;;;18.17;;
36009;SDS011;22076;52.182;5.404;2024-01-07T05:53:43;33.00;;;16.85;;
36009;SDS011;22076;52.182;5.404;2024-01-07T05:56:10;32.45;;;15.55;;
36009;SDS011;22076;52.182;5.404;2024-01-07T05:58:36;31.58;;;17.00;;
36009;SDS011;22076;52.182;5.404;2024-01-07T06:01:03;27.63;;;16.20;;
36009;SDS011;22076;52.182;5.404;2024-01-07T06:03:30;31.88;;;17.38;;
36009;SDS011;22076;52.182;5.404;2024-01-07T06:05:57;32.53;;;17.23;;
36009;SDS011;22076;52.182;5.404;2024-01-07T06:10:52;30.80;;;15.75;;
36009;SDS011;22076;52.182;5.404;2024-01-07T06:13:19;29.83;;;17.23;;
36009;SDS011;22076;52.182;5.404;2024-01-07T06:15:45;29.77;;;16.23;;
36009;SDS011;22076;52.182;5.404;2024-01-07T06:18:12;26.58;;;15.63;;
36009;SDS011;22076;52.182;5.404;2024-01-07T06:20:39;21.98;;;13.30;;
36009;SDS011;22076;52.182;5.404;2024-01-07T06:23:06;28.65;;;13.98;;
36009;SDS011;22076;52.182;5.404;2024-01-07T06:25:34;26.65;;;14.98;;
36009;SDS011;22076;52.182;5.404;2024-01-07T06:28:01;25.98;;;14.50;;
36009;SDS011;22076;52.182;5.404;2024-01-07T06:30:27;28.80;;;14.63;;
36009;SDS011;22076;52.182;5.404;2024-01-07T06:32:54;24.42;;;13.20;;
36009;SDS011;22076;52.182;5.404;2024-01-07T06:35:21;25.63;;;14.02;;
36009;SDS011;22076;52.182;5.404;2024-01-07T06:37:47;36.42;;;16.95;;
36009;SDS011;22076;52.182;5.404;2024-01-07T06:40:14;26.38;;;14.32;;
36009;SDS011;22076;52.182;5.404;2024-01-07T06:42:42;27.67;;;14.63;;
36009;SDS011;22076;52.182;5.404;2024-01-07T06:45:09;31.83;;;17.10;;
36009;SDS011;22076;52.182;5.404;2024-01-07T06:47:36;28.60;;;15.77;;
36009;SDS011;22076;52.182;5.404;2024-01-07T06:50:03;26.42;;;14.90;;
36009;SDS011;22076;52.182;5.404;2024-01-07T06:52:30;26.45;;;15.65;;
36009;SDS011;22076;52.182;5.404;2024-01-07T06:54:57;26.90;;;15.25;;
36009;SDS011;22076;52.182;5.404;2024-01-07T06:57:24;27.48;;;14.65;;
36009;SDS011;22076;52.182;5.404;2024-01-07T06:59:51;24.73;;;14.48;;
36009;SDS011;22076;52.182;5.404;2024-01-07T07:02:19;26.40;;;14.93;;
36009;SDS011;22076;52.182;5.404;2024-01-07T07:04:46;26.83;;;14.48;;
36009;SDS011;22076;52.182;5.404;2024-01-07T07:07:13;31.05;;;17.33;;
36009;SDS011;22076;52.182;5.404;2024-01-07T07:09:40;29.08;;;14.27;;
36009;SDS011;22076;52.182;5.404;2024-01-07T07:12:06;26.60;;;14.05;;
36009;SDS011;22076;52.182;5.404;2024-01-07T07:14:33;33.35;;;16.30;;
36009;SDS011;22076;52.182;5.404;2024-01-07T07:17:01;26.45;;;14.68;;
36009;SDS011;22076;52.182;5.404;2024-01-07T07:19:28;23.23;;;13.00;;
36009;SDS011;22076;52.182;5.404;2024-01-07T07:21:54;27.25;;;13.15;;
36009;SDS011;22076;52.182;5.404;2024-01-07T07:24:21;25.70;;;13.10;;
36009;SDS011;22076;52.182;5.404;2024-01-07T07:26:48;23.90;;;13.13;;
36009;SDS011;22076;52.182;5.404;2024-01-07T07:29:14;23.33;;;12.68;;
36009;SDS011;22076;52.182;5.404;2024-01-07T07:31:41;28.08;;;14.30;;
36009;SDS011;22076;52.182;5.404;2024-01-07T07:34:09;24.23;;;14.20;;
36009;SDS011;22076;52.182;5.404;2024-01-07T07:36:37;25.20;;;14.10;;
36009;SDS011;22076;52.182;5.404;2024-01-07T07:39:04;31.05;;;17.65;;
36009;SDS011;22076;52.182;5.404;2024-01-07T07:41:32;25.17;;;14.23;;
36009;SDS011;22076;52.182;5.404;2024-01-07T07:43:59;25.83;;;13.90;;
36009;SDS011;22076;52.182;5.404;2024-01-07T07:46:25;27.85;;;15.50;;
36009;SDS011;22076;52.182;5.404;2024-01-07T07:48:54;19.98;;;11.77;;
36009;SDS011;22076;52.182;5.404;2024-01-07T07:51:22;25.88;;;15.07;;
36009;SDS011;22076;52.182;5.404;2024-01-07T07:53:49;25.25;;;15.57;;
36009;SDS011;22076;52.182;5.404;2024-01-07T07:56:15;21.60;;;13.13;;
36009;SDS011;22076;52.182;5.404;2024-01-07T07:58:42;27.70;;;13.88;;
36009;SDS011;22076;52.182;5.404;2024-01-07T08:01:08;23.63;;;14.15;;
36009;SDS011;22076;52.182;5.404;2024-01-07T08:03:41;24.25;;;14.02;;
36009;SDS011;22076;52.182;5.404;2024-01-07T08:06:07;20.73;;;12.10;;
36009;SDS011;22076;52.182;5.404;2024-01-07T08:08:35;24.45;;;13.60;;
36009;SDS011;22076;52.182;5.404;2024-01-07T08:11:02;25.30;;;12.43;;
36009;SDS011;22076;52.182;5.404;2024-01-07T08:13:31;24.17;;;14.43;;
36009;SDS011;22076;52.182;5.404;2024-01-07T08:15:57;25.27;;;15.63;;
36009;SDS011;22076;52.182;5.404;2024-01-07T08:18:24;23.67;;;13.55;;
36009;SDS011;22076;52.182;5.404;2024-01-07T08:20:50;22.42;;;14.02;;
36009;SDS011;22076;52.182;5.404;2024-01-07T08:23:17;25.10;;;13.93;;
36009;SDS011;22076;52.182;5.404;2024-01-07T08:25:45;21.40;;;12.23;;
36009;SDS011;22076;52.182;5.404;2024-01-07T08:28:11;20.23;;;13.02;;
36009;SDS011;22076;52.182;5.404;2024-01-07T08:30:38;21.27;;;12.00;;
36009;SDS011;22076;52.182;5.404;2024-01-07T08:33:04;20.42;;;12.00;;
36009;SDS011;22076;52.182;5.404;2024-01-07T08:35:31;22.45;;;12.77;;
36009;SDS011;22076;52.182;5.404;2024-01-07T08:37:57;21.70;;;12.95;;
36009;SDS011;22076;52.182;5.404;2024-01-07T08:40:24;22.60;;;12.18;;
36009;SDS011;22076;52.182;5.404;2024-01-07T08:42:52;19.90;;;12.60;;
36009;SDS011;22076;52.182;5.404;2024-01-07T08:45:18;21.42;;;13.23;;
36009;SDS011;22076;52.182;5.404;2024-01-07T08:47:45;18.15;;;10.23;;
36009;SDS011;22076;52.182;5.404;2024-01-07T08:50:11;18.00;;;11.88;;
36009;SDS011;22076;52.182;5.404;2024-01-07T08:52:38;21.80;;;11.77;;
36009;SDS011;22076;52.182;5.404;2024-01-07T08:55:05;21.85;;;12.73;;
36009;SDS011;22076;52.182;5.404;2024-01-07T08:57:34;19.80;;;11.52;;
36009;SDS011;22076;52.182;5.404;2024-01-07T09:00:03;19.17;;;10.50;;
36009;SDS011;22076;52.182;5.404;2024-01-07T09:02:32;19.00;;;11.95;;
36009;SDS011;22076;52.182;5.404;2024-01-07T09:04:59;27.52;;;13.20;;
36009;SDS011;22076;52.182;5.404;2024-01-07T09:07:25;20.55;;;11.98;;
36009;SDS011;22076;52.182;5.404;2024-01-07T09:09:53;27.60;;;13.43;;
36009;SDS011;22076;52.182;5.404;2024-01-07T09:12:24;21.85;;;11.35;;
36009;SDS011;22076;52.182;5.404;2024-01-07T09:14:51;18.65;;;11.32;;
36009;SDS011;22076;52.182;5.404;2024-01-07T09:17:18;22.05;;;11.85;;
36009;SDS011;22076;52.182;5.404;2024-01-07T09:19:46;20.98;;;12.25;;
36009;SDS011;22076;52.182;5.404;2024-01-07T09:22:12;19.83;;;11.57;;
36009;SDS011;22076;52.182;5.404;2024-01-07T09:24:39;20.95;;;11.20;;
36009;SDS011;22076;52.182;5.404;2024-01-07T09:27:05;22.98;;;12.65;;
36009;SDS011;22076;52.182;5.404;2024-01-07T09:29:32;21.08;;;11.63;;
36009;SDS011;22076;52.182;5.404;2024-01-07T09:31:58;22.17;;;12.25;;
36009;SDS011;22076;52.182;5.404;2024-01-07T09:34:26;20.65;;;11.57;;
36009;SDS011;22076;52.182;5.404;2024-01-07T09:36:53;22.52;;;11.82;;
36009;SDS011;22076;52.182;5.404;2024-01-07T09:39:19;19.33;;;11.10;;
36009;SDS011;22076;52.182;5.404;2024-01-07T09:41:46;22.13;;;12.10;;
36009;SDS011;22076;52.182;5.404;2024-01-07T09:44:12;22.02;;;11.32;;
36009;SDS011;22076;52.182;5.404;2024-01-07T09:46:39;16.75;;;9.70;;
36009;SDS011;22076;52.182;5.404;2024-01-07T09:49:07;15.73;;;9.43;;
36009;SDS011;22076;52.182;5.404;2024-01-07T09:51:35;15.57;;;8.82;;
36009;SDS011;22076;52.182;5.404;2024-01-07T09:54:02;16.00;;;8.27;;
36009;SDS011;22076;52.182;5.404;2024-01-07T09:56:33;19.02;;;9.75;;
36009;SDS011;22076;52.182;5.404;2024-01-07T09:59:04;16.83;;;8.98;;
36009;SDS011;22076;52.182;5.404;2024-01-07T10:01:31;14.77;;;8.25;;
36009;SDS011;22076;52.182;5.404;2024-01-07T10:04:00;14.10;;;8.75;;
36009;SDS011;22076;52.182;5.404;2024-01-07T10:06:27;15.60;;;8.15;;
36009;SDS011;22076;52.182;5.404;2024-01-07T10:08:55;19.75;;;7.53;;
36009;SDS011;22076;52.182;5.404;2024-01-07T10:11:22;16.08;;;7.55;;
36009;SDS011;22076;52.182;5.404;2024-01-07T10:13:48;12.00;;;6.90;;
36009;SDS011;22076;52.182;5.404;2024-01-07T10:16:16;14.68;;;7.43;;
36009;SDS011;22076;52.182;5.404;2024-01-07T10:18:43;12.10;;;7.75;;
36009;SDS011;22076;52.182;5.404;2024-01-07T10:21:09;11.95;;;5.72;;
36009;SDS011;22076;52.182;5.404;2024-01-07T10:23:36;13.20;;;7.35;;
36009;SDS011;22076;52.182;5.404;2024-01-07T10:26:04;10.55;;;6.93;;
36009;SDS011;22076;52.182;5.404;2024-01-07T10:28:31;16.80;;;7.10;;
36009;SDS011;22076;52.182;5.404;2024-01-07T10:30:57;14.02;;;6.18;;
36009;SDS011;22076;52.182;5.404;2024-01-07T10:33:24;11.80;;;5.95;;
36009;SDS011;22076;52.182;5.404;2024-01-07T10:35:52;11.55;;;6.80;;
36009;SDS011;22076;52.182;5.404;2024-01-07T10:38:22;11.38;;;5.93;;
36009;SDS011;22076;52.182;5.404;2024-01-07T10:40:49;10.30;;;6.00;;
36009;SDS011;22076;52.182;5.404;2024-01-07T10:43:19;9.45;;;5.55;;
36009;SDS011;22076;52.182;5.404;2024-01-07T10:45:46;10.07;;;5.13;;
36009;SDS011;22076;52.182;5.404;2024-01-07T10:48:15;12.48;;;6.22;;
36009;SDS011;22076;52.182;5.404;2024-01-07T10:50:44;9.82;;;5.15;;
36009;SDS011;22076;52.182;5.404;2024-01-07T10:53:13;8.65;;;5.47;;
36009;SDS011;22076;52.182;5.404;2024-01-07T10:55:44;9.75;;;4.82;;
36009;SDS011;22076;52.182;5.404;2024-01-07T10:58:17;9.27;;;4.68;;
36009;SDS011;22076;52.182;5.404;2024-01-07T11:00:46;8.50;;;5.13;;
36009;SDS011;22076;52.182;5.404;2024-01-07T11:03:20;11.88;;;6.25;;
36009;SDS011;22076;52.182;5.404;2024-01-07T11:05:54;10.32;;;5.75;;
36009;SDS011;22076;52.182;5.404;2024-01-07T11:08:26;9.07;;;5.90;;
36009;SDS011;22076;52.182;5.404;2024-01-07T11:11:00;9.93;;;5.53;;
36009;SDS011;22076;52.182;5.404;2024-01-07T11:13:33;9.70;;;5.85;;
36009;SDS011;22076;52.182;5.404;2024-01-07T11:16:01;9.93;;;5.45;;
36009;SDS011;22076;52.182;5.404;2024-01-07T11:18:28;5.78;;;3.95;;
36009;SDS011;22076;52.182;5.404;2024-01-07T11:20:59;6.45;;;4.15;;
36009;SDS011;22076;52.182;5.404;2024-01-07T11:23:27;10.10;;;4.30;;
36009;SDS011;22076;52.182;5.404;2024-01-07T11:25:56;6.03;;;3.67;;
36009;SDS011;22076;52.182;5.404;2024-01-07T11:28:44;8.30;;;4.35;;
36009;SDS011;22076;52.182;5.404;2024-01-07T11:31:11;6.80;;;3.83;;
36009;SDS011;22076;52.182;5.404;2024-01-07T11:33:38;6.22;;;4.20;;
36009;SDS011;22076;52.182;5.404;2024-01-07T11:36:05;5.72;;;3.50;;
36009;SDS011;22076;52.182;5.404;2024-01-07T11:38:33;6.57;;;3.70;;
36009;SDS011;22076;52.182;5.404;2024-01-07T11:41:00;7.53;;;3.80;;
36009;SDS011;22076;52.182;5.404;2024-01-07T11:43:30;4.90;;;3.25;;
36009;SDS011;22076;52.182;5.404;2024-01-07T11:45:59;5.90;;;3.15;;
36009;SDS011;22076;52.182;5.404;2024-01-07T11:48:25;5.63;;;3.35;;
36009;SDS011;22076;52.182;5.404;2024-01-07T11:50:52;6.32;;;3.17;;
36009;SDS011;22076;52.182;5.404;2024-01-07T11:53:18;5.03;;;3.40;;
36009;SDS011;22076;52.182;5.404;2024-01-07T11:55:45;6.03;;;3.63;;
36009;SDS011;22076;52.182;5.404;2024-01-07T11:58:12;4.90;;;2.88;;
36009;SDS011;22076;52.182;5.404;2024-01-07T12:00:39;5.88;;;3.17;;
36009;SDS011;22076;52.182;5.404;2024-01-07T12:03:07;4.47;;;2.85;;
36009;SDS011;22076;52.182;5.404;2024-01-07T12:05:33;4.65;;;2.88;;
36009;SDS011;22076;52.182;5.404;2024-01-07T12:08:00;5.35;;;3.10;;
36009;SDS011;22076;52.182;5.404;2024-01-07T12:10:28;4.40;;;2.67;;
36009;SDS011;22076;52.182;5.404;2024-01-07T12:12:55;5.45;;;3.08;;
36009;SDS011;22076;52.182;5.404;2024-01-07T12:15:22;3.50;;;2.38;;
36009;SDS011;22076;52.182;5.404;2024-01-07T12:17:56;4.25;;;2.33;;
36009;SDS011;22076;52.182;5.404;2024-01-07T12:20:25;5.00;;;2.75;;
36009;SDS011;22076;52.182;5.404;2024-01-07T12:22:57;4.05;;;2.50;;
36009;SDS011;22076;52.182;5.404;2024-01-07T12:25:24;5.15;;;2.25;;
36009;SDS011;22076;52.182;5.404;2024-01-07T12:27:51;4.85;;;2.13;;
36009;SDS011;22076;52.182;5.404;2024-01-07T12:30:23;3.40;;;2.17;;
36009;SDS011;22076;52.182;5.404;2024-01-07T12:32:51;6.10;;;2.25;;
36009;SDS011;22076;52.182;5.404;2024-01-07T12:35:17;5.65;;;2.58;;
36009;SDS011;22076;52.182;5.404;2024-01-07T12:37:45;4.20;;;2.10;;
36009;SDS011;22076;52.182;5.404;2024-01-07T12:40:14;5.38;;;2.65;;
36009;SDS011;22076;52.182;5.404;2024-01-07T12:42:40;4.47;;;2.00;;
36009;SDS011;22076;52.182;5.404;2024-01-07T12:45:11;4.97;;;2.20;;
36009;SDS011;22076;52.182;5.404;2024-01-07T12:47:39;3.78;;;2.05;;
36009;SDS011;22076;52.182;5.404;2024-01-07T12:50:06;5.07;;;2.17;;
36009;SDS011;22076;52.182;5.404;2024-01-07T12:52:34;6.45;;;2.38;;
36009;SDS011;22076;52.182;5.404;2024-01-07T12:55:03;3.78;;;2.17;;
36009;SDS011;22076;52.182;5.404;2024-01-07T12:57:30;5.25;;;2.50;;
36009;SDS011;22076;52.182;5.404;2024-01-07T12:59:57;5.68;;;2.30;;
36009;SDS011;22076;52.182;5.404;2024-01-07T13:02:23;4.88;;;2.42;;
36009;SDS011;22076;52.182;5.404;2024-01-07T13:04:50;3.28;;;2.25;;
36009;SDS011;22076;52.182;5.404;2024-01-07T13:07:17;2.78;;;1.95;;
36009;SDS011;22076;52.182;5.404;2024-01-07T13:09:43;2.85;;;2.03;;
36009;SDS011;22076;52.182;5.404;2024-01-07T13:12:11;3.67;;;1.98;;
36009;SDS011;22076;52.182;5.404;2024-01-07T13:14:38;3.22;;;1.73;;
36009;SDS011;22076;52.182;5.404;2024-01-07T13:17:04;2.97;;;1.85;;
36009;SDS011;22076;52.182;5.404;2024-01-07T13:19:31;5.88;;;2.13;;
36009;SDS011;22076;52.182;5.404;2024-01-07T13:21:58;2.70;;;1.67;;
36009;SDS011;22076;52.182;5.404;2024-01-07T13:24:24;1.98;;;1.80;;
36009;SDS011;22076;52.182;5.404;2024-01-07T13:26:51;3.22;;;2.17;;
36009;SDS011;22076;52.182;5.404;2024-01-07T13:29:19;3.30;;;2.00;;
36009;SDS011;22076;52.182;5.404;2024-01-07T13:31:46;3.03;;;1.73;;
36009;SDS011;22076;52.182;5.404;2024-01-07T13:34:12;4.03;;;2.08;;
36009;SDS011;22076;52.182;5.404;2024-01-07T13:36:41;5.75;;;2.00;;
36009;SDS011;22076;52.182;5.404;2024-01-07T13:39:08;6.13;;;2.30;;
36009;SDS011;22076;52.182;5.404;2024-01-07T13:41:36;3.20;;;1.80;;
36009;SDS011;22076;52.182;5.404;2024-01-07T13:44:04;2.65;;;2.03;;
36009;SDS011;22076;52.182;5.404;2024-01-07T13:46:33;2.42;;;1.70;;
36009;SDS011;22076;52.182;5.404;2024-01-07T13:49:00;3.35;;;1.58;;
36009;SDS011;22076;52.182;5.404;2024-01-07T13:51:27;4.07;;;2.00;;
36009;SDS011;22076;52.182;5.404;2024-01-07T13:53:53;4.47;;;2.25;;
36009;SDS011;22076;52.182;5.404;2024-01-07T13:56:20;2.85;;;1.95;;
36009;SDS011;22076;52.182;5.404;2024-01-07T13:58:47;2.40;;;1.55;;
36009;SDS011;22076;52.182;5.404;2024-01-07T14:01:15;7.32;;;2.13;;
36009;SDS011;22076;52.182;5.404;2024-01-07T14:03:43;4.22;;;1.90;;
36009;SDS011;22076;52.182;5.404;2024-01-07T14:06:09;3.97;;;1.70;;
36009;SDS011;22076;52.182;5.404;2024-01-07T14:08:36;5.05;;;1.67;;
36009;SDS011;22076;52.182;5.404;2024-01-07T14:11:03;2.60;;;1.65;;
36009;SDS011;22076;52.182;5.404;2024-01-07T14:13:32;7.57;;;2.05;;
36009;SDS011;22076;52.182;5.404;2024-01-07T14:15:59;2.70;;;1.67;;
36009;SDS011;22076;52.182;5.404;2024-01-07T14:18:25;3.70;;;1.80;;
36009;SDS011;22076;52.182;5.404;2024-01-07T14:20:53;5.50;;;2.05;;
36009;SDS011;22076;52.182;5.404;2024-01-07T14:23:20;4.25;;;2.05;;
36009;SDS011;22076;52.182;5.404;2024-01-07T14:25:46;2.85;;;1.88;;
36009;SDS011;22076;52.182;5.404;2024-01-07T14:28:13;3.70;;;2.05;;
36009;SDS011;22076;52.182;5.404;2024-01-07T14:30:39;4.47;;;1.95;;
36009;SDS011;22076;52.182;5.404;2024-01-07T14:33:06;2.15;;;1.63;;